ENGM/OSL METAR and TAF weather

Enter ICAO airport designator
Station Type Date Time Source
ENGM METAR 2020/09/20 15:20 UTC NOAA

ENGM 201520Z 23006KT 200V260 CAVOK 18/09 Q1017 NOSIG


Station Type Date Time Source
ENGM Decoded METAR 2020/09/20 15:20 UTC NOAA

Oslo / Gardermoen, Norway (ENGM) 60-12N 011-05E 204M
Sep 20, 2020 - 11:20 AM EDT / 2020.09.20 1520 UTC
Wind: from the SW (230 degrees) at 7 MPH (6 KT) (direction variable):0
Visibility: greater than 7 mile(s):0
Temperature: 64 F (18 C)
Dew Point: 48 F (9 C)
Relative Humidity: 55%
Pressure (altimeter): 30.03 in. Hg (1017 hPa)
ob: ENGM 201520Z 23006KT 200V260 CAVOK 18/09 Q1017 NOSIG
cycle: 15

Station Type Date Time Source
ENGM TAF 2020/09/20 12:57 UTC NOAA

TAF ENGM 201100Z 2012/2112 19005KT CAVOK

Example: see airport list